createdAt,value
2023-05-15T00:01:19.923Z,9.70
2023-05-15T00:03:22.685Z,12.65
2023-05-15T00:05:25.524Z,8.40
2023-05-15T00:07:29.771Z,10.60
2023-05-15T00:09:32.503Z,9.93
2023-05-15T00:11:35.139Z,8.20
2023-05-15T00:13:38.476Z,8.43
2023-05-15T00:15:41.149Z,9.40
2023-05-15T00:17:43.791Z,12.00
2023-05-15T00:19:46.696Z,10.65
2023-05-15T00:21:49.286Z,7.43
2023-05-15T00:23:54.064Z,9.60
2023-05-15T00:25:56.700Z,8.07
2023-05-15T00:27:59.342Z,9.38
2023-05-15T00:30:01.877Z,10.75
2023-05-15T00:32:04.668Z,8.50
2023-05-15T00:34:07.241Z,12.98
2023-05-15T00:36:10.390Z,8.35
2023-05-15T00:38:13.075Z,10.63
2023-05-15T00:40:22.063Z,9.23
2023-05-15T00:42:25.898Z,8.90
2023-05-15T00:44:29.585Z,9.27
2023-05-15T00:46:33.188Z,8.07
2023-05-15T00:48:36.369Z,12.60
2023-05-15T00:50:41.346Z,9.75
2023-05-15T00:52:44.403Z,8.90
2023-05-15T00:54:46.960Z,7.63
2023-05-15T00:56:51.872Z,10.18
2023-05-15T00:58:55.725Z,8.23
2023-05-15T01:00:58.269Z,8.07
2023-05-15T01:03:01.815Z,11.00
2023-05-15T01:05:07.402Z,9.73
2023-05-15T01:07:10.033Z,8.63
2023-05-15T01:09:15.174Z,9.65
2023-05-15T01:11:19.056Z,10.02
2023-05-15T01:13:23.836Z,11.80
2023-05-15T01:15:27.354Z,9.73
2023-05-15T01:17:30.829Z,9.63
2023-05-15T01:19:33.511Z,7.97
2023-05-15T01:21:58.179Z,8.85
2023-05-15T01:24:13.138Z,11.82
2023-05-15T01:26:44.103Z,8.10
2023-05-15T01:28:56.889Z,8.07
2023-05-15T01:31:02.397Z,9.18
2023-05-15T01:33:09.524Z,9.40
2023-05-15T01:35:15.723Z,8.30
2023-05-15T01:37:22.108Z,8.55
2023-05-15T01:39:27.953Z,9.20
2023-05-15T01:41:33.684Z,7.93
2023-05-15T01:43:40.195Z,8.73
2023-05-15T01:45:44.453Z,10.52
2023-05-15T01:47:48.239Z,8.45
2023-05-15T01:49:54.048Z,9.55
2023-05-15T01:52:00.631Z,11.30
2023-05-15T01:54:04.772Z,12.38
2023-05-15T01:56:10.151Z,9.90
2023-05-15T01:58:14.317Z,9.23
2023-05-15T02:00:18.661Z,9.63
2023-05-15T02:02:23.307Z,12.48
2023-05-15T02:04:27.206Z,12.93
2023-05-15T02:06:30.753Z,9.77
2023-05-15T02:08:34.029Z,11.85
2023-05-15T02:10:38.624Z,8.82
2023-05-15T02:12:42.162Z,9.85
2023-05-15T02:14:46.015Z,10.93
2023-05-15T02:16:48.808Z,9.18
2023-05-15T02:18:53.042Z,10.85
2023-05-15T02:20:55.781Z,11.45
2023-05-15T02:22:58.342Z,10.50
2023-05-15T02:25:00.920Z,12.30
2023-05-15T02:27:09.436Z,10.05
2023-05-15T02:29:19.603Z,8.82
2023-05-15T02:31:28.337Z,9.48
2023-05-15T02:33:36.572Z,11.88
2023-05-15T02:35:46.856Z,8.82
2023-05-15T02:37:53.578Z,8.98
2023-05-15T02:39:59.628Z,9.70
2023-05-15T02:42:02.833Z,9.73
2023-05-15T02:44:06.633Z,10.00
2023-05-15T02:46:09.612Z,8.70
2023-05-15T02:48:13.937Z,9.48
2023-05-15T02:50:17.194Z,8.52
2023-05-15T02:52:21.253Z,10.48
2023-05-15T02:54:26.883Z,8.43
2023-05-15T02:56:32.151Z,9.70
2023-05-15T02:58:35.420Z,9.80
2023-05-15T03:00:40.765Z,9.45
2023-05-15T03:02:43.422Z,11.13
2023-05-15T03:04:47.086Z,10.10
2023-05-15T03:06:50.584Z,8.40
2023-05-15T03:08:54.537Z,10.52
2023-05-15T03:10:57.428Z,13.85
2023-05-15T03:13:00.560Z,10.48
2023-05-15T03:15:03.145Z,8.25
2023-05-15T03:17:06.154Z,13.23
2023-05-15T03:19:08.886Z,9.65
2023-05-15T03:21:11.500Z,9.50
2023-05-15T03:23:14.040Z,9.30
2023-05-15T03:25:18.129Z,12.05
2023-05-15T03:27:20.691Z,8.82
2023-05-15T03:29:23.262Z,9.32
2023-05-15T03:31:26.049Z,10.88
2023-05-15T03:33:28.651Z,12.65
2023-05-15T03:35:32.301Z,7.22
2023-05-15T03:37:34.866Z,12.13
2023-05-15T03:39:37.452Z,8.50
2023-05-15T03:41:41.394Z,12.48
2023-05-15T03:43:43.979Z,14.90
2023-05-15T03:45:46.654Z,9.02
2023-05-15T03:47:49.353Z,9.13
2023-05-15T03:49:52.092Z,16.02
2023-05-15T03:51:54.709Z,9.55
2023-05-15T03:53:57.406Z,9.80
2023-05-15T03:55:59.993Z,9.68
2023-05-15T03:58:03.980Z,9.20
2023-05-15T04:00:10.248Z,8.93
2023-05-15T04:02:12.919Z,9.77
2023-05-15T04:04:15.484Z,9.02
2023-05-15T04:06:18.155Z,10.48
2023-05-15T04:08:20.807Z,9.80
2023-05-15T04:10:23.467Z,11.82
2023-05-15T04:12:28.223Z,10.10
2023-05-15T04:14:32.177Z,10.93
2023-05-15T04:16:34.880Z,8.90
2023-05-15T04:18:37.571Z,10.98
2023-05-15T04:20:40.254Z,11.02
2023-05-15T04:22:43.042Z,10.80
2023-05-15T04:24:45.706Z,10.80
2023-05-15T04:26:48.356Z,8.48
2023-05-15T04:29:02.812Z,11.07
2023-05-15T04:31:07.711Z,14.18
2023-05-15T04:33:10.880Z,8.10
2023-05-15T04:35:15.024Z,9.38
2023-05-15T04:37:17.632Z,7.18
2023-05-15T04:39:20.252Z,11.32
2023-05-15T04:41:22.866Z,8.57
2023-05-15T04:43:25.425Z,8.30
2023-05-15T04:45:28.026Z,9.70
2023-05-15T04:47:32.441Z,8.05
2023-05-15T04:49:35.051Z,11.05
2023-05-15T04:51:37.629Z,10.15
2023-05-15T04:53:40.182Z,10.13
2023-05-15T04:55:42.738Z,9.02
2023-05-15T04:57:47.904Z,12.15
2023-05-15T04:59:50.548Z,10.50
2023-05-15T05:01:53.188Z,9.10
2023-05-15T05:03:57.170Z,11.75
2023-05-15T05:05:59.776Z,10.60
2023-05-15T05:08:02.305Z,9.10
2023-05-15T05:10:05.591Z,8.77
2023-05-15T05:12:09.172Z,10.32
2023-05-15T05:14:11.821Z,8.52
2023-05-15T05:16:14.435Z,8.80
2023-05-15T05:18:17.015Z,11.50
2023-05-15T05:20:21.025Z,11.13
2023-05-15T05:22:23.772Z,10.20
2023-05-15T05:24:26.451Z,10.15
2023-05-15T05:26:29.305Z,10.07
2023-05-15T05:28:31.857Z,17.17
2023-05-15T05:30:34.456Z,13.73
2023-05-15T05:32:37.052Z,10.25
2023-05-15T05:34:39.712Z,8.95
2023-05-15T05:36:43.596Z,9.68
2023-05-15T05:38:46.172Z,12.93
2023-05-15T05:40:48.759Z,8.43
2023-05-15T05:42:52.951Z,8.85
2023-05-15T05:44:57.950Z,9.02
2023-05-15T05:47:00.647Z,10.18
2023-05-15T05:49:03.456Z,9.45
2023-05-15T05:51:06.254Z,8.70
2023-05-15T05:53:10.570Z,9.95
2023-05-15T05:55:13.162Z,8.15
2023-05-15T05:57:15.943Z,10.70
2023-05-15T05:59:18.554Z,9.45
2023-05-15T06:01:21.633Z,8.05
2023-05-15T06:03:25.214Z,9.48
2023-05-15T06:05:28.366Z,9.82
2023-05-15T06:07:31.050Z,11.07
2023-05-15T06:09:34.980Z,9.35
2023-05-15T06:11:40.732Z,10.90
2023-05-15T06:13:43.472Z,11.40
2023-05-15T06:15:47.431Z,8.20
2023-05-15T06:17:50.152Z,15.85
2023-05-15T06:19:52.831Z,12.35
2023-05-15T06:21:56.126Z,9.48
2023-05-15T06:23:59.263Z,12.43
2023-05-15T06:26:03.236Z,9.57
2023-05-15T06:28:06.148Z,11.32
2023-05-15T06:30:09.953Z,11.38
2023-05-15T06:32:12.633Z,11.32
2023-05-15T06:34:15.526Z,8.90
2023-05-15T06:36:18.126Z,10.90
2023-05-15T06:38:20.671Z,9.20
2023-05-15T06:40:23.585Z,8.45
2023-05-15T06:42:27.728Z,10.27
2023-05-15T06:44:30.957Z,9.32
2023-05-15T06:46:33.546Z,10.40
2023-05-15T06:48:37.046Z,9.02
2023-05-15T06:50:39.607Z,9.45
2023-05-15T06:52:42.141Z,10.77
2023-05-15T06:54:44.690Z,11.07
2023-05-15T06:56:47.355Z,10.98
2023-05-15T06:58:51.267Z,9.77
2023-05-15T07:00:56.062Z,11.27
2023-05-15T07:02:59.130Z,12.23
2023-05-15T07:05:01.811Z,15.60
2023-05-15T07:07:04.543Z,10.23
2023-05-15T07:09:07.200Z,10.93
2023-05-15T07:11:09.807Z,11.65
2023-05-15T07:13:12.344Z,17.15
2023-05-15T07:15:17.620Z,11.15
2023-05-15T07:17:20.268Z,10.55
2023-05-15T07:19:22.909Z,8.63
2023-05-15T07:21:25.538Z,13.68
2023-05-15T07:23:28.154Z,11.38
2023-05-15T07:25:31.111Z,10.07
2023-05-15T07:27:33.730Z,9.75
2023-05-15T07:29:36.285Z,11.43
2023-05-15T07:31:40.851Z,11.05
2023-05-15T07:33:43.504Z,12.38
2023-05-15T07:35:46.079Z,10.82
2023-05-15T07:37:48.666Z,11.70
2023-05-15T07:39:51.269Z,13.00
2023-05-15T07:41:54.271Z,11.18
2023-05-15T07:43:56.878Z,13.43
2023-05-15T07:45:59.478Z,14.70
2023-05-15T07:48:14.939Z,11.35
2023-05-15T07:50:18.031Z,13.98
2023-05-15T07:52:20.668Z,12.50
2023-05-15T07:54:23.334Z,13.38
2023-05-15T07:56:26.838Z,10.90
2023-05-15T07:58:29.606Z,13.52
2023-05-15T08:00:32.193Z,12.05
2023-05-15T08:02:34.875Z,13.38
2023-05-15T08:04:38.868Z,12.07
2023-05-15T08:06:42.776Z,10.73
2023-05-15T08:08:46.919Z,11.35
2023-05-15T08:10:49.502Z,13.25
2023-05-15T08:12:52.162Z,12.90
2023-05-15T08:14:56.278Z,16.17
2023-05-15T08:16:58.825Z,12.02
2023-05-15T08:19:04.771Z,13.07
2023-05-15T08:21:10.177Z,13.50
2023-05-15T08:23:15.684Z,12.05
2023-05-15T08:25:18.340Z,9.45
2023-05-15T08:27:20.899Z,11.63
2023-05-15T08:29:23.498Z,10.23
2023-05-15T08:31:26.146Z,10.70
2023-05-15T08:33:28.733Z,10.40
2023-05-15T08:35:31.365Z,10.93
2023-05-15T08:37:35.303Z,9.27
2023-05-15T08:39:37.867Z,11.43
2023-05-15T08:41:47.527Z,11.18
2023-05-15T08:43:52.400Z,9.57
2023-05-15T08:45:56.061Z,9.98
2023-05-15T08:47:59.663Z,8.77
2023-05-15T08:50:07.471Z,8.25
2023-05-15T08:52:10.404Z,7.95
2023-05-15T08:54:15.135Z,12.23
2023-05-15T08:56:19.226Z,11.80
2023-05-15T08:58:25.977Z,8.40
2023-05-15T09:00:29.703Z,8.82
2023-05-15T09:02:32.281Z,9.85
2023-05-15T09:04:34.920Z,8.40
2023-05-15T09:06:38.442Z,10.60
2023-05-15T09:08:42.164Z,8.55
2023-05-15T09:10:46.979Z,8.70
2023-05-15T09:12:52.245Z,9.57
2023-05-15T09:15:09.670Z,9.45
2023-05-15T09:17:12.455Z,9.52
2023-05-15T09:19:16.319Z,12.32
2023-05-15T09:21:26.284Z,11.85
2023-05-15T09:23:29.123Z,9.10
2023-05-15T09:25:37.519Z,9.52
2023-05-15T09:27:45.391Z,8.52
2023-05-15T09:29:48.795Z,7.78
2023-05-15T09:31:51.485Z,12.20
2023-05-15T09:34:04.404Z,13.95
2023-05-15T09:36:08.727Z,7.10
2023-05-15T09:38:13.251Z,7.05
2023-05-15T09:40:19.756Z,6.55
2023-05-15T09:42:22.360Z,7.32
2023-05-15T09:44:27.913Z,9.68
2023-05-15T09:46:30.618Z,7.25
2023-05-15T09:48:33.675Z,6.80
2023-05-15T09:50:38.193Z,7.88
2023-05-15T09:52:40.946Z,8.05
2023-05-15T09:54:49.504Z,9.13
2023-05-15T09:56:52.943Z,8.73
2023-05-15T09:58:56.476Z,9.07
2023-05-15T10:01:00.947Z,8.57
2023-05-15T10:03:04.528Z,6.68
2023-05-15T10:05:07.456Z,7.18
2023-05-15T10:07:10.339Z,7.57
2023-05-15T10:09:14.136Z,6.82
2023-05-15T10:11:16.888Z,7.47
2023-05-15T10:13:19.604Z,12.02
2023-05-15T10:15:23.714Z,8.00
2023-05-15T10:17:30.128Z,8.43
2023-05-15T10:19:33.270Z,8.52
2023-05-15T10:21:37.641Z,6.70
2023-05-15T10:23:43.620Z,7.57
2023-05-15T10:25:53.601Z,5.80
2023-05-15T10:27:58.302Z,6.47
2023-05-15T10:30:02.153Z,7.82
2023-05-15T10:32:05.839Z,3.83
2023-05-15T10:34:11.884Z,5.55
2023-05-15T10:36:15.748Z,3.30
2023-05-15T10:38:20.287Z,4.93
2023-05-15T10:40:24.544Z,4.95
2023-05-15T10:42:27.591Z,7.22
2023-05-15T10:44:30.179Z,4.30
2023-05-15T10:46:35.865Z,2.55
2023-05-15T10:48:39.215Z,2.92
2023-05-15T10:50:43.251Z,5.13
2023-05-15T10:52:45.910Z,4.53
2023-05-15T10:54:48.492Z,3.17
2023-05-15T10:56:52.316Z,4.25
2023-05-15T10:58:56.055Z,5.35
2023-05-15T11:00:58.616Z,5.25
2023-05-15T11:03:02.016Z,4.40
2023-05-15T11:05:05.117Z,4.05
2023-05-15T11:07:18.112Z,3.97
2023-05-15T11:09:40.179Z,4.95
2023-05-15T11:11:56.871Z,3.50
2023-05-15T11:14:15.668Z,5.30
2023-05-15T11:17:00.289Z,3.47
2023-05-15T11:19:03.598Z,6.13
2023-05-15T11:21:09.589Z,6.88
2023-05-15T11:23:13.516Z,4.32
2023-05-15T11:25:16.779Z,3.83
2023-05-15T11:27:21.250Z,4.78
2023-05-15T11:29:24.307Z,5.10
2023-05-15T11:31:31.266Z,3.97
2023-05-15T11:33:33.898Z,4.68
2023-05-15T11:35:39.632Z,5.55
2023-05-15T11:37:43.925Z,4.78
2023-05-15T11:39:48.664Z,5.82
2023-05-15T11:41:51.271Z,3.97
2023-05-15T11:43:53.824Z,3.90
2023-05-15T11:45:58.353Z,7.07
2023-05-15T11:48:06.917Z,4.45
2023-05-15T11:50:12.672Z,4.90
2023-05-15T11:52:15.366Z,5.53
2023-05-15T11:54:18.643Z,4.47
2023-05-15T11:56:24.308Z,6.05
2023-05-15T11:58:27.747Z,7.00
2023-05-15T12:00:30.531Z,6.53
2023-05-15T12:02:33.159Z,3.80
2023-05-15T12:04:35.882Z,5.13
2023-05-15T12:06:38.569Z,5.13
2023-05-15T12:08:42.017Z,5.22
2023-05-15T12:10:45.508Z,4.50
2023-05-15T12:12:50.049Z,5.45
2023-05-15T12:14:52.626Z,7.90
2023-05-15T12:16:58.210Z,3.83
2023-05-15T12:19:01.122Z,6.63
2023-05-15T12:21:05.236Z,5.05
2023-05-15T12:23:09.389Z,8.18
2023-05-15T12:25:13.154Z,6.65
2023-05-15T12:27:16.329Z,3.90
2023-05-15T12:29:20.558Z,7.78
2023-05-15T12:31:23.419Z,4.25
2023-05-15T12:33:26.131Z,5.75
2023-05-15T12:35:28.828Z,5.68
2023-05-15T12:37:33.022Z,3.90
2023-05-15T12:39:35.662Z,6.55
2023-05-15T12:41:38.821Z,4.63
2023-05-15T12:43:41.974Z,4.95
2023-05-15T12:45:46.262Z,4.30
2023-05-15T12:47:50.742Z,11.85
2023-05-15T12:49:57.242Z,6.65
2023-05-15T12:51:59.800Z,5.93
2023-05-15T12:54:02.384Z,5.95
2023-05-15T12:56:05.339Z,7.97
2023-05-15T12:58:11.072Z,5.97
2023-05-15T13:00:17.933Z,5.85
2023-05-15T13:02:23.282Z,5.50
2023-05-15T13:04:26.300Z,9.00
2023-05-15T13:06:38.402Z,9.75
2023-05-15T13:08:48.885Z,6.25
2023-05-15T13:10:58.061Z,6.50
2023-05-15T13:13:00.992Z,7.05
2023-05-15T13:15:03.649Z,7.63
2023-05-15T13:17:06.507Z,7.88
2023-05-15T13:19:10.705Z,7.82
2023-05-15T13:21:13.310Z,5.63
2023-05-15T13:23:18.324Z,6.10
2023-05-15T13:25:21.462Z,7.80
2023-05-15T13:27:24.031Z,8.13
2023-05-15T13:29:26.568Z,6.25
2023-05-15T13:31:29.253Z,4.05
2023-05-15T13:33:31.955Z,5.88
2023-05-15T13:35:36.531Z,6.22
2023-05-15T13:37:39.435Z,6.03
2023-05-15T13:39:41.974Z,5.72
2023-05-15T13:41:46.481Z,4.43
2023-05-15T13:43:49.408Z,5.07
2023-05-15T13:45:51.990Z,3.65
2023-05-15T13:47:55.557Z,4.47
2023-05-15T13:49:58.199Z,7.35
2023-05-15T13:52:02.113Z,5.80
2023-05-15T13:54:04.946Z,4.95
2023-05-15T13:56:07.814Z,3.35
2023-05-15T13:58:11.614Z,5.50
2023-05-15T14:00:15.240Z,5.75
2023-05-15T14:02:17.837Z,7.97
2023-05-15T14:04:20.478Z,6.05
2023-05-15T14:06:23.155Z,4.20
2023-05-15T14:08:27.060Z,3.63
2023-05-15T14:10:29.675Z,5.30
2023-05-15T14:12:32.364Z,5.55
2023-05-15T14:14:34.950Z,3.55
2023-05-15T14:16:37.508Z,7.05
2023-05-15T14:18:40.402Z,7.82
2023-05-15T14:20:42.943Z,6.65
2023-05-15T14:22:45.489Z,5.45
2023-05-15T14:24:49.344Z,3.65
2023-05-15T14:26:54.144Z,6.97
2023-05-15T14:28:56.733Z,5.13
2023-05-15T14:31:00.062Z,7.45
2023-05-15T14:33:02.721Z,4.30
2023-05-15T14:35:05.891Z,5.30
2023-05-15T14:37:08.450Z,5.60
2023-05-15T14:39:10.976Z,4.50
2023-05-15T14:41:15.030Z,5.63
2023-05-15T14:43:17.591Z,10.27
2023-05-15T14:45:20.235Z,6.30
2023-05-15T14:47:22.853Z,9.88
2023-05-15T14:49:25.435Z,12.85
2023-05-15T14:51:28.073Z,8.48
2023-05-15T14:53:30.627Z,8.85
2023-05-15T14:55:33.179Z,14.73
2023-05-15T14:57:37.104Z,7.95
2023-05-15T14:59:39.718Z,12.70
2023-05-15T15:01:42.340Z,6.22
2023-05-15T15:03:45.105Z,5.45
2023-05-15T15:05:47.756Z,8.95
2023-05-15T15:08:01.909Z,8.05
2023-05-15T15:10:04.801Z,9.07
2023-05-15T15:12:08.032Z,6.88
2023-05-15T15:14:11.963Z,6.32
2023-05-15T15:16:14.613Z,6.00
2023-05-15T15:18:17.245Z,8.05
2023-05-15T15:20:20.811Z,6.90
2023-05-15T15:22:23.364Z,6.47
2023-05-15T15:24:25.949Z,5.15
2023-05-15T15:26:28.537Z,4.70
2023-05-15T15:28:34.510Z,5.53
2023-05-15T15:30:38.420Z,11.13
2023-05-15T15:32:41.652Z,5.47
2023-05-15T15:34:45.030Z,8.02
2023-05-15T15:36:47.600Z,9.73
2023-05-15T15:38:50.285Z,7.55
2023-05-15T15:40:52.869Z,10.50
2023-05-15T15:42:55.418Z,7.35
2023-05-15T15:45:00.000Z,10.32
2023-05-15T15:47:04.018Z,9.43
2023-05-15T15:49:07.435Z,8.20
2023-05-15T15:51:09.983Z,8.30
2023-05-15T15:53:12.610Z,7.50
2023-05-15T15:55:15.244Z,7.47
2023-05-15T15:57:18.669Z,11.50
2023-05-15T15:59:21.435Z,7.78
2023-05-15T16:01:24.266Z,9.98
2023-05-15T16:03:28.412Z,7.50
2023-05-15T16:05:31.156Z,11.55
2023-05-15T16:07:33.816Z,14.20
2023-05-15T16:09:36.414Z,10.45
2023-05-15T16:11:39.030Z,7.68
2023-05-15T16:13:41.596Z,10.52
2023-05-15T16:15:44.180Z,10.75
2023-05-15T16:17:46.805Z,9.73
2023-05-15T16:19:50.718Z,7.53
2023-05-15T16:21:53.526Z,12.38
2023-05-15T16:23:56.069Z,10.60
2023-05-15T16:25:58.659Z,7.90
2023-05-15T16:28:01.225Z,11.23
2023-05-15T16:30:03.945Z,9.23
2023-05-15T16:32:07.569Z,7.05
2023-05-15T16:34:10.188Z,12.43
2023-05-15T16:36:14.134Z,12.15
2023-05-15T16:38:17.935Z,12.90
2023-05-15T16:40:20.701Z,8.43
2023-05-15T16:42:25.974Z,9.55
2023-05-15T16:44:28.528Z,8.85
2023-05-15T16:46:31.091Z,9.05
2023-05-15T16:48:33.699Z,11.45
2023-05-15T16:50:37.779Z,15.43
2023-05-15T16:52:45.815Z,16.42
2023-05-15T16:54:48.595Z,10.95
2023-05-15T16:56:51.184Z,10.80
2023-05-15T16:58:55.495Z,9.13
2023-05-15T17:00:58.073Z,11.85
2023-05-15T17:03:00.746Z,15.07
2023-05-15T17:05:03.656Z,15.27
2023-05-15T17:07:06.485Z,11.98
2023-05-15T17:09:10.367Z,10.40
2023-05-15T17:11:13.440Z,11.40
2023-05-15T17:13:16.063Z,10.55
2023-05-15T17:15:18.640Z,13.77
2023-05-15T17:17:21.244Z,13.52
2023-05-15T17:19:24.205Z,10.98
2023-05-15T17:21:26.782Z,11.23
2023-05-15T17:23:29.376Z,13.40
2023-05-15T17:25:33.374Z,14.88
2023-05-15T17:27:39.672Z,13.27
2023-05-15T17:29:42.396Z,12.80
2023-05-15T17:31:45.564Z,12.60
2023-05-15T17:33:48.336Z,14.77
2023-05-15T17:35:50.932Z,13.07
2023-05-15T17:37:53.508Z,15.35
2023-05-15T17:39:56.210Z,15.13
2023-05-15T17:42:03.641Z,14.82
2023-05-15T17:44:06.718Z,16.10
2023-05-15T17:46:09.284Z,22.73
2023-05-15T17:48:11.926Z,13.93
2023-05-15T17:50:14.674Z,12.45
2023-05-15T17:52:17.332Z,14.63
2023-05-15T17:54:20.176Z,14.50
2023-05-15T17:56:23.107Z,11.23
2023-05-15T17:58:27.032Z,10.10
2023-05-15T18:00:29.581Z,11.65
2023-05-15T18:02:32.146Z,16.77
2023-05-15T18:04:34.723Z,10.15
2023-05-15T18:06:37.455Z,11.30
2023-05-15T18:08:40.116Z,16.55
2023-05-15T18:10:42.716Z,12.45
2023-05-15T18:12:45.521Z,11.07
2023-05-15T18:14:49.395Z,12.02
2023-05-15T18:16:52.299Z,10.30
2023-05-15T18:18:54.945Z,11.90
2023-05-15T18:20:57.527Z,10.75
2023-05-15T18:23:00.415Z,12.95
2023-05-15T18:25:03.036Z,16.73
2023-05-15T18:27:05.935Z,15.43
2023-05-15T18:29:11.832Z,13.43
2023-05-15T18:31:15.866Z,13.38
2023-05-15T18:33:18.437Z,13.50
2023-05-15T18:35:21.184Z,10.68
2023-05-15T18:37:23.979Z,14.80
2023-05-15T18:39:26.560Z,15.05
2023-05-15T18:41:29.151Z,13.30
2023-05-15T18:43:31.724Z,11.52
2023-05-15T18:45:34.320Z,10.35
2023-05-15T18:47:38.238Z,12.32
2023-05-15T18:49:40.914Z,12.73
2023-05-15T18:51:43.483Z,18.20
2023-05-15T18:53:46.079Z,15.48
2023-05-15T18:55:48.657Z,12.63
2023-05-15T18:57:51.676Z,10.18
2023-05-15T18:59:54.605Z,8.77
2023-05-15T19:01:57.298Z,12.50
2023-05-15T19:04:01.248Z,11.25
2023-05-15T19:06:03.834Z,12.50
2023-05-15T19:08:07.373Z,12.13
2023-05-15T19:10:10.797Z,10.38
2023-05-15T19:12:13.357Z,13.05
2023-05-15T19:14:17.898Z,11.32
2023-05-15T19:16:20.638Z,9.82
2023-05-15T19:18:24.379Z,15.65
2023-05-15T19:20:30.772Z,11.60
2023-05-15T19:22:33.359Z,12.20
2023-05-15T19:24:35.915Z,17.35
2023-05-15T19:26:39.337Z,12.73
2023-05-15T19:28:41.878Z,11.25
2023-05-15T19:30:44.565Z,10.00
2023-05-15T19:32:47.265Z,13.20
2023-05-15T19:34:50.003Z,13.85
2023-05-15T19:36:54.235Z,13.02
2023-05-15T19:38:57.001Z,15.48
2023-05-15T19:40:59.679Z,17.45
2023-05-15T19:43:02.478Z,15.15
2023-05-15T19:45:07.073Z,13.43
2023-05-15T19:47:09.740Z,12.90
2023-05-15T19:49:12.346Z,12.45
2023-05-15T19:51:15.485Z,13.55
2023-05-15T19:53:19.423Z,10.15
2023-05-15T19:55:22.098Z,11.52
2023-05-15T19:57:24.804Z,12.57
2023-05-15T19:59:27.370Z,12.10
2023-05-15T20:01:30.022Z,11.88
2023-05-15T20:03:33.621Z,11.77
2023-05-15T20:05:40.146Z,10.48
2023-05-15T20:07:43.124Z,10.18
2023-05-15T20:09:47.070Z,9.10
2023-05-15T20:11:49.671Z,10.05
2023-05-15T20:13:52.868Z,13.07
2023-05-15T20:15:56.765Z,9.15
2023-05-15T20:17:59.586Z,12.02
2023-05-15T20:20:02.234Z,10.02
2023-05-15T20:22:05.008Z,10.18
2023-05-15T20:24:08.032Z,8.52
2023-05-15T20:26:11.966Z,11.77
2023-05-15T20:28:14.601Z,8.82
2023-05-15T20:30:17.251Z,11.75
2023-05-15T20:32:19.882Z,10.13
2023-05-15T20:34:23.315Z,16.05
2023-05-15T20:36:26.205Z,9.68
2023-05-15T20:38:28.802Z,10.30
2023-05-15T20:40:31.725Z,13.48
2023-05-15T20:42:35.800Z,12.32
2023-05-15T20:44:39.384Z,11.88
2023-05-15T20:46:44.911Z,11.38
2023-05-15T20:48:47.497Z,14.00
2023-05-15T20:50:52.926Z,13.73
2023-05-15T20:52:55.655Z,12.82
2023-05-15T20:54:58.309Z,13.88
2023-05-15T20:57:01.047Z,11.10
2023-05-15T20:59:05.035Z,15.48
2023-05-15T21:01:07.705Z,14.30
2023-05-15T21:03:10.976Z,14.07
2023-05-15T21:05:13.874Z,11.63
2023-05-15T21:07:18.889Z,12.32
2023-05-15T21:09:21.466Z,11.27
2023-05-15T21:11:24.245Z,10.95
2023-05-15T21:13:26.869Z,13.63
2023-05-15T21:15:30.785Z,12.48
2023-05-15T21:17:33.382Z,15.82
2023-05-15T21:19:35.948Z,14.05
2023-05-15T21:21:38.538Z,15.05
2023-05-15T21:23:41.335Z,13.70
2023-05-15T21:25:44.075Z,11.57
2023-05-15T21:27:46.707Z,9.48
2023-05-15T21:29:49.324Z,13.13
2023-05-15T21:31:53.262Z,13.77
2023-05-15T21:33:56.121Z,12.85
2023-05-15T21:35:58.691Z,13.25
2023-05-15T21:38:01.341Z,9.45
2023-05-15T21:40:04.134Z,12.13
2023-05-15T21:42:06.806Z,12.63
2023-05-15T21:44:09.328Z,11.70
2023-05-15T21:46:11.913Z,9.68
2023-05-15T21:48:15.970Z,11.68
2023-05-15T21:50:18.703Z,13.07
2023-05-15T21:52:21.657Z,9.38
2023-05-15T21:54:24.220Z,8.85
2023-05-15T21:56:26.834Z,14.57
2023-05-15T21:58:29.883Z,10.73
2023-05-15T22:00:32.481Z,10.85
2023-05-15T22:02:35.469Z,11.15
2023-05-15T22:04:39.440Z,9.10
2023-05-15T22:06:42.089Z,12.43
2023-05-15T22:08:44.740Z,9.13
2023-05-15T22:10:47.409Z,7.90
2023-05-15T22:12:50.077Z,13.13
2023-05-15T22:14:59.016Z,10.40
2023-05-15T22:17:02.204Z,7.60
2023-05-15T22:19:04.852Z,8.57
2023-05-15T22:21:08.798Z,8.07
2023-05-15T22:23:11.382Z,13.25
2023-05-15T22:25:14.105Z,12.93
2023-05-15T22:27:17.339Z,9.10
2023-05-15T22:29:19.906Z,9.60
2023-05-15T22:31:22.678Z,9.45
2023-05-15T22:33:25.252Z,11.77
2023-05-15T22:35:28.265Z,12.20
2023-05-15T22:37:32.441Z,12.23
2023-05-15T22:39:35.156Z,9.90
2023-05-15T22:41:40.448Z,11.60
2023-05-15T22:43:43.088Z,8.60
2023-05-15T22:45:45.734Z,8.45
2023-05-15T22:47:49.470Z,11.50
2023-05-15T22:49:52.364Z,11.00
2023-05-15T22:51:55.765Z,8.80
2023-05-15T22:53:59.663Z,15.07
2023-05-15T22:56:02.383Z,9.75
2023-05-15T22:58:04.958Z,8.68
2023-05-15T23:00:09.918Z,8.55
2023-05-15T23:02:13.236Z,12.88
2023-05-15T23:04:18.712Z,9.93
2023-05-15T23:06:21.369Z,11.82
2023-05-15T23:08:24.321Z,10.90
2023-05-15T23:10:28.585Z,10.25
2023-05-15T23:12:31.577Z,9.77
2023-05-15T23:14:34.288Z,9.32
2023-05-15T23:16:37.124Z,11.40
2023-05-15T23:18:39.671Z,11.05
2023-05-15T23:20:42.325Z,9.32
2023-05-15T23:22:44.896Z,8.30
2023-05-15T23:24:47.558Z,10.15
2023-05-15T23:26:51.493Z,8.40
2023-05-15T23:28:54.157Z,12.48
2023-05-15T23:30:57.161Z,11.52
2023-05-15T23:32:59.831Z,10.88
2023-05-15T23:35:02.556Z,8.05
2023-05-15T23:37:05.600Z,9.00
2023-05-15T23:39:09.049Z,7.93
2023-05-15T23:41:11.996Z,8.32
2023-05-15T23:43:16.375Z,10.00
2023-05-15T23:45:19.050Z,7.60
2023-05-15T23:47:21.680Z,11.98
2023-05-15T23:49:24.253Z,11.50
2023-05-15T23:51:26.984Z,9.00
2023-05-15T23:53:29.516Z,9.48
2023-05-15T23:55:32.823Z,10.32
2023-05-15T23:57:35.567Z,9.30
2023-05-15T23:59:39.557Z,10.80
